sensor_id;sensor_type;location;lat;lon;timestamp;P1;durP1;ratioP1;P2;durP2;ratioP2
57249;SDS011;43102;52.014;-0.680;2022-11-20T00:00:00;9.60;;;5.70;;
57249;SDS011;43102;52.014;-0.680;2022-11-20T00:01:18;9.60;;;5.70;;
57249;SDS011;43102;52.014;-0.680;2022-11-20T00:02:00;9.60;;;5.70;;
57249;SDS011;43102;52.014;-0.680;2022-11-20T00:03:00;9.60;;;5.70;;
57249;SDS011;43102;52.014;-0.680;2022-11-20T00:04:00;9.60;;;5.70;;
57249;SDS011;43102;52.014;-0.680;2022-11-20T00:05:00;9.60;;;5.70;;
57249;SDS011;43102;52.014;-0.680;2022-11-20T00:06:01;9.60;;;5.70;;
57249;SDS011;43102;52.014;-0.680;2022-11-20T00:07:00;9.60;;;5.70;;
57249;SDS011;43102;52.014;-0.680;2022-11-20T00:08:00;9.60;;;5.70;;
57249;SDS011;43102;52.014;-0.680;2022-11-20T00:09:01;7.60;;;4.60;;
57249;SDS011;43102;52.014;-0.680;2022-11-20T00:10:00;7.60;;;4.60;;
57249;SDS011;43102;52.014;-0.680;2022-11-20T00:11:05;7.60;;;4.60;;
57249;SDS011;43102;52.014;-0.680;2022-11-20T00:12:00;7.60;;;4.60;;
57249;SDS011;43102;52.014;-0.680;2022-11-20T00:13:00;7.60;;;4.60;;
57249;SDS011;43102;52.014;-0.680;2022-11-20T00:14:01;7.60;;;4.60;;
57249;SDS011;43102;52.014;-0.680;2022-11-20T00:15:00;7.60;;;4.60;;
57249;SDS011;43102;52.014;-0.680;2022-11-20T00:16:03;7.60;;;4.60;;
57249;SDS011;43102;52.014;-0.680;2022-11-20T00:17:00;7.60;;;4.60;;
57249;SDS011;43102;52.014;-0.680;2022-11-20T00:18:00;7.60;;;4.60;;
57249;SDS011;43102;52.014;-0.680;2022-11-20T00:19:00;7.60;;;4.60;;
57249;SDS011;43102;52.014;-0.680;2022-11-20T00:20:00;7.60;;;4.60;;
57249;SDS011;43102;52.014;-0.680;2022-11-20T00:21:03;7.60;;;4.60;;
57249;SDS011;43102;52.014;-0.680;2022-11-20T00:22:00;7.60;;;4.60;;
57249;SDS011;43102;52.014;-0.680;2022-11-20T00:23:00;7.60;;;4.60;;
57249;SDS011;43102;52.014;-0.680;2022-11-20T00:24:00;7.60;;;4.60;;
57249;SDS011;43102;52.014;-0.680;2022-11-20T00:25:00;7.60;;;4.60;;
57249;SDS011;43102;52.014;-0.680;2022-11-20T00:26:04;7.60;;;4.60;;
57249;SDS011;43102;52.014;-0.680;2022-11-20T00:27:00;7.60;;;4.60;;
57249;SDS011;43102;52.014;-0.680;2022-11-20T00:28:00;7.60;;;4.60;;
57249;SDS011;43102;52.014;-0.680;2022-11-20T00:29:01;7.60;;;4.60;;
57249;SDS011;43102;52.014;-0.680;2022-11-20T00:30:00;7.60;;;4.60;;
57249;SDS011;43102;52.014;-0.680;2022-11-20T00:31:02;7.60;;;4.60;;
57249;SDS011;43102;52.014;-0.680;2022-11-20T00:32:00;7.60;;;4.60;;
57249;SDS011;43102;52.014;-0.680;2022-11-20T00:33:00;7.60;;;4.60;;
57249;SDS011;43102;52.014;-0.680;2022-11-20T00:34:00;7.60;;;4.60;;
57249;SDS011;43102;52.014;-0.680;2022-11-20T00:35:00;7.60;;;4.60;;
57249;SDS011;43102;52.014;-0.680;2022-11-20T00:36:03;7.60;;;4.60;;
57249;SDS011;43102;52.014;-0.680;2022-11-20T00:37:00;7.60;;;4.60;;
57249;SDS011;43102;52.014;-0.680;2022-11-20T00:38:00;7.60;;;4.60;;
57249;SDS011;43102;52.014;-0.680;2022-11-20T00:39:00;5.30;;;3.60;;
57249;SDS011;43102;52.014;-0.680;2022-11-20T00:40:00;5.30;;;3.60;;
57249;SDS011;43102;52.014;-0.680;2022-11-20T00:41:02;5.30;;;3.60;;
57249;SDS011;43102;52.014;-0.680;2022-11-20T00:42:00;5.30;;;3.60;;
57249;SDS011;43102;52.014;-0.680;2022-11-20T00:43:00;5.30;;;3.60;;
57249;SDS011;43102;52.014;-0.680;2022-11-20T00:44:00;5.30;;;3.60;;
57249;SDS011;43102;52.014;-0.680;2022-11-20T00:45:00;5.30;;;3.60;;
57249;SDS011;43102;52.014;-0.680;2022-11-20T00:46:02;5.30;;;3.60;;
57249;SDS011;43102;52.014;-0.680;2022-11-20T00:47:00;5.30;;;3.60;;
57249;SDS011;43102;52.014;-0.680;2022-11-20T00:48:00;5.30;;;3.60;;
57249;SDS011;43102;52.014;-0.680;2022-11-20T00:49:00;5.30;;;3.60;;
57249;SDS011;43102;52.014;-0.680;2022-11-20T00:50:00;5.30;;;3.60;;
57249;SDS011;43102;52.014;-0.680;2022-11-20T00:51:00;5.30;;;3.60;;
57249;SDS011;43102;52.014;-0.680;2022-11-20T00:52:00;5.30;;;3.60;;
57249;SDS011;43102;52.014;-0.680;2022-11-20T00:53:00;5.30;;;3.60;;
57249;SDS011;43102;52.014;-0.680;2022-11-20T00:54:01;5.30;;;3.60;;
57249;SDS011;43102;52.014;-0.680;2022-11-20T00:55:00;5.30;;;3.60;;
57249;SDS011;43102;52.014;-0.680;2022-11-20T00:56:03;5.30;;;3.60;;
57249;SDS011;43102;52.014;-0.680;2022-11-20T00:57:00;5.30;;;3.60;;
57249;SDS011;43102;52.014;-0.680;2022-11-20T00:58:05;5.30;;;3.60;;
57249;SDS011;43102;52.014;-0.680;2022-11-20T00:59:01;5.30;;;3.60;;
57249;SDS011;43102;52.014;-0.680;2022-11-20T01:00:00;5.30;;;3.60;;
57249;SDS011;43102;52.014;-0.680;2022-11-20T01:01:03;5.30;;;3.60;;
57249;SDS011;43102;52.014;-0.680;2022-11-20T01:02:00;5.30;;;3.60;;
57249;SDS011;43102;52.014;-0.680;2022-11-20T01:03:00;5.30;;;3.60;;
57249;SDS011;43102;52.014;-0.680;2022-11-20T01:04:00;5.30;;;3.60;;
57249;SDS011;43102;52.014;-0.680;2022-11-20T01:05:00;5.30;;;3.60;;
57249;SDS011;43102;52.014;-0.680;2022-11-20T01:06:03;5.30;;;3.60;;
57249;SDS011;43102;52.014;-0.680;2022-11-20T01:07:00;5.30;;;3.60;;
57249;SDS011;43102;52.014;-0.680;2022-11-20T01:08:00;5.30;;;3.60;;
57249;SDS011;43102;52.014;-0.680;2022-11-20T01:09:04;5.70;;;3.40;;
57249;SDS011;43102;52.014;-0.680;2022-11-20T01:10:00;5.70;;;3.40;;
57249;SDS011;43102;52.014;-0.680;2022-11-20T01:11:02;5.70;;;3.40;;
57249;SDS011;43102;52.014;-0.680;2022-11-20T01:12:00;5.70;;;3.40;;
57249;SDS011;43102;52.014;-0.680;2022-11-20T01:13:10;5.70;;;3.40;;
57249;SDS011;43102;52.014;-0.680;2022-11-20T01:14:02;5.70;;;3.40;;
57249;SDS011;43102;52.014;-0.680;2022-11-20T01:15:00;5.70;;;3.40;;
57249;SDS011;43102;52.014;-0.680;2022-11-20T01:16:12;5.70;;;3.40;;
57249;SDS011;43102;52.014;-0.680;2022-11-20T01:17:00;5.70;;;3.40;;
57249;SDS011;43102;52.014;-0.680;2022-11-20T01:18:00;5.70;;;3.40;;
57249;SDS011;43102;52.014;-0.680;2022-11-20T01:19:02;5.70;;;3.40;;
57249;SDS011;43102;52.014;-0.680;2022-11-20T01:20:00;5.70;;;3.40;;
57249;SDS011;43102;52.014;-0.680;2022-11-20T01:21:03;5.70;;;3.40;;
57249;SDS011;43102;52.014;-0.680;2022-11-20T01:22:00;5.70;;;3.40;;
57249;SDS011;43102;52.014;-0.680;2022-11-20T01:23:00;5.70;;;3.40;;
57249;SDS011;43102;52.014;-0.680;2022-11-20T01:24:01;5.70;;;3.40;;
57249;SDS011;43102;52.014;-0.680;2022-11-20T01:25:00;5.70;;;3.40;;
57249;SDS011;43102;52.014;-0.680;2022-11-20T01:26:02;5.70;;;3.40;;
57249;SDS011;43102;52.014;-0.680;2022-11-20T01:27:00;5.70;;;3.40;;
57249;SDS011;43102;52.014;-0.680;2022-11-20T01:28:00;5.70;;;3.40;;
57249;SDS011;43102;52.014;-0.680;2022-11-20T01:29:01;5.70;;;3.40;;
57249;SDS011;43102;52.014;-0.680;2022-11-20T01:30:01;5.70;;;3.40;;
57249;SDS011;43102;52.014;-0.680;2022-11-20T01:31:00;5.70;;;3.40;;
57249;SDS011;43102;52.014;-0.680;2022-11-20T01:32:00;5.70;;;3.40;;
57249;SDS011;43102;52.014;-0.680;2022-11-20T01:33:00;5.70;;;3.40;;
57249;SDS011;43102;52.014;-0.680;2022-11-20T01:34:02;5.70;;;3.40;;
57249;SDS011;43102;52.014;-0.680;2022-11-20T01:35:00;5.70;;;3.40;;
57249;SDS011;43102;52.014;-0.680;2022-11-20T01:36:05;5.70;;;3.40;;
57249;SDS011;43102;52.014;-0.680;2022-11-20T01:37:00;5.70;;;3.40;;
57249;SDS011;43102;52.014;-0.680;2022-11-20T01:38:00;5.70;;;3.40;;
57249;SDS011;43102;52.014;-0.680;2022-11-20T01:39:02;10.20;;;3.20;;
57249;SDS011;43102;52.014;-0.680;2022-11-20T01:40:00;10.20;;;3.20;;
57249;SDS011;43102;52.014;-0.680;2022-11-20T01:41:00;10.20;;;3.20;;
57249;SDS011;43102;52.014;-0.680;2022-11-20T01:42:10;10.20;;;3.20;;
57249;SDS011;43102;52.014;-0.680;2022-11-20T01:43:20;10.20;;;3.20;;
57249;SDS011;43102;52.014;-0.680;2022-11-20T01:44:00;10.20;;;3.20;;
57249;SDS011;43102;52.014;-0.680;2022-11-20T01:45:00;10.20;;;3.20;;
57249;SDS011;43102;52.014;-0.680;2022-11-20T01:46:02;10.20;;;3.20;;
57249;SDS011;43102;52.014;-0.680;2022-11-20T01:47:03;10.20;;;3.20;;
57249;SDS011;43102;52.014;-0.680;2022-11-20T01:48:00;10.20;;;3.20;;
57249;SDS011;43102;52.014;-0.680;2022-11-20T01:49:06;10.20;;;3.20;;
57249;SDS011;43102;52.014;-0.680;2022-11-20T01:50:03;10.20;;;3.20;;
57249;SDS011;43102;52.014;-0.680;2022-11-20T01:51:01;10.20;;;3.20;;
57249;SDS011;43102;52.014;-0.680;2022-11-20T01:52:04;10.20;;;3.20;;
57249;SDS011;43102;52.014;-0.680;2022-11-20T01:53:05;10.20;;;3.20;;
57249;SDS011;43102;52.014;-0.680;2022-11-20T01:54:04;10.20;;;3.20;;
57249;SDS011;43102;52.014;-0.680;2022-11-20T01:55:05;10.20;;;3.20;;
57249;SDS011;43102;52.014;-0.680;2022-11-20T01:56:02;10.20;;;3.20;;
57249;SDS011;43102;52.014;-0.680;2022-11-20T01:57:00;10.20;;;3.20;;
57249;SDS011;43102;52.014;-0.680;2022-11-20T01:58:01;10.20;;;3.20;;
57249;SDS011;43102;52.014;-0.680;2022-11-20T01:59:02;10.20;;;3.20;;
57249;SDS011;43102;52.014;-0.680;2022-11-20T02:00:06;10.20;;;3.20;;
57249;SDS011;43102;52.014;-0.680;2022-11-20T02:01:00;10.20;;;3.20;;
57249;SDS011;43102;52.014;-0.680;2022-11-20T02:02:00;10.20;;;3.20;;
57249;SDS011;43102;52.014;-0.680;2022-11-20T02:03:04;10.20;;;3.20;;
57249;SDS011;43102;52.014;-0.680;2022-11-20T02:04:00;10.20;;;3.20;;
57249;SDS011;43102;52.014;-0.680;2022-11-20T02:06:04;10.20;;;3.20;;
57249;SDS011;43102;52.014;-0.680;2022-11-20T02:07:01;10.20;;;3.20;;
57249;SDS011;43102;52.014;-0.680;2022-11-20T02:08:02;10.20;;;3.20;;
57249;SDS011;43102;52.014;-0.680;2022-11-20T02:09:00;8.30;;;3.30;;
57249;SDS011;43102;52.014;-0.680;2022-11-20T02:10:00;8.30;;;3.30;;
57249;SDS011;43102;52.014;-0.680;2022-11-20T02:11:00;8.30;;;3.30;;
57249;SDS011;43102;52.014;-0.680;2022-11-20T02:12:00;8.30;;;3.30;;
57249;SDS011;43102;52.014;-0.680;2022-11-20T02:13:10;8.30;;;3.30;;
57249;SDS011;43102;52.014;-0.680;2022-11-20T02:14:00;8.30;;;3.30;;
57249;SDS011;43102;52.014;-0.680;2022-11-20T02:15:00;8.30;;;3.30;;
57249;SDS011;43102;52.014;-0.680;2022-11-20T02:16:01;8.30;;;3.30;;
57249;SDS011;43102;52.014;-0.680;2022-11-20T02:17:00;8.30;;;3.30;;
57249;SDS011;43102;52.014;-0.680;2022-11-20T02:18:00;8.30;;;3.30;;
57249;SDS011;43102;52.014;-0.680;2022-11-20T02:19:01;8.30;;;3.30;;
57249;SDS011;43102;52.014;-0.680;2022-11-20T02:20:00;8.30;;;3.30;;
57249;SDS011;43102;52.014;-0.680;2022-11-20T02:21:06;8.30;;;3.30;;
57249;SDS011;43102;52.014;-0.680;2022-11-20T02:22:05;8.30;;;3.30;;
57249;SDS011;43102;52.014;-0.680;2022-11-20T02:23:11;8.30;;;3.30;;
57249;SDS011;43102;52.014;-0.680;2022-11-20T02:24:01;8.30;;;3.30;;
57249;SDS011;43102;52.014;-0.680;2022-11-20T02:25:02;8.30;;;3.30;;
57249;SDS011;43102;52.014;-0.680;2022-11-20T02:26:02;8.30;;;3.30;;
57249;SDS011;43102;52.014;-0.680;2022-11-20T02:27:06;8.30;;;3.30;;
57249;SDS011;43102;52.014;-0.680;2022-11-20T02:28:00;8.30;;;3.30;;
57249;SDS011;43102;52.014;-0.680;2022-11-20T02:29:02;8.30;;;3.30;;
57249;SDS011;43102;52.014;-0.680;2022-11-20T02:30:03;8.30;;;3.30;;
57249;SDS011;43102;52.014;-0.680;2022-11-20T02:31:00;8.30;;;3.30;;
57249;SDS011;43102;52.014;-0.680;2022-11-20T02:32:01;8.30;;;3.30;;
57249;SDS011;43102;52.014;-0.680;2022-11-20T02:33:00;8.30;;;3.30;;
57249;SDS011;43102;52.014;-0.680;2022-11-20T02:34:00;8.30;;;3.30;;
57249;SDS011;43102;52.014;-0.680;2022-11-20T02:36:00;8.30;;;3.30;;
57249;SDS011;43102;52.014;-0.680;2022-11-20T02:37:00;8.30;;;3.30;;
57249;SDS011;43102;52.014;-0.680;2022-11-20T02:38:02;8.30;;;3.30;;
57249;SDS011;43102;52.014;-0.680;2022-11-20T02:39:00;5.50;;;3.20;;
57249;SDS011;43102;52.014;-0.680;2022-11-20T02:40:00;5.50;;;3.20;;
57249;SDS011;43102;52.014;-0.680;2022-11-20T02:41:00;5.50;;;3.20;;
57249;SDS011;43102;52.014;-0.680;2022-11-20T02:42:01;5.50;;;3.20;;
57249;SDS011;43102;52.014;-0.680;2022-11-20T02:43:00;5.50;;;3.20;;
57249;SDS011;43102;52.014;-0.680;2022-11-20T02:44:00;5.50;;;3.20;;
57249;SDS011;43102;52.014;-0.680;2022-11-20T02:45:00;5.50;;;3.20;;
57249;SDS011;43102;52.014;-0.680;2022-11-20T03:09:00;9.10;;;4.00;;
57249;SDS011;43102;52.014;-0.680;2022-11-20T03:10:00;9.10;;;4.00;;
57249;SDS011;43102;52.014;-0.680;2022-11-20T03:11:05;9.10;;;4.00;;
57249;SDS011;43102;52.014;-0.680;2022-11-20T03:12:00;9.10;;;4.00;;
57249;SDS011;43102;52.014;-0.680;2022-11-20T03:13:00;9.10;;;4.00;;
57249;SDS011;43102;52.014;-0.680;2022-11-20T03:14:02;9.10;;;4.00;;
57249;SDS011;43102;52.014;-0.680;2022-11-20T03:15:00;9.10;;;4.00;;
57249;SDS011;43102;52.014;-0.680;2022-11-20T03:16:10;9.10;;;4.00;;
57249;SDS011;43102;52.014;-0.680;2022-11-20T03:17:00;9.10;;;4.00;;
57249;SDS011;43102;52.014;-0.680;2022-11-20T03:18:00;9.10;;;4.00;;
57249;SDS011;43102;52.014;-0.680;2022-11-20T03:19:01;9.10;;;4.00;;
57249;SDS011;43102;52.014;-0.680;2022-11-20T03:20:00;9.10;;;4.00;;
57249;SDS011;43102;52.014;-0.680;2022-11-20T03:21:00;9.10;;;4.00;;
57249;SDS011;43102;52.014;-0.680;2022-11-20T03:23:00;9.10;;;4.00;;
57249;SDS011;43102;52.014;-0.680;2022-11-20T03:24:00;9.10;;;4.00;;
57249;SDS011;43102;52.014;-0.680;2022-11-20T03:25:00;9.10;;;4.00;;
57249;SDS011;43102;52.014;-0.680;2022-11-20T03:29:02;9.10;;;4.00;;
57249;SDS011;43102;52.014;-0.680;2022-11-20T03:30:00;9.10;;;4.00;;
57249;SDS011;43102;52.014;-0.680;2022-11-20T03:31:05;9.10;;;4.00;;
57249;SDS011;43102;52.014;-0.680;2022-11-20T03:32:00;9.10;;;4.00;;
57249;SDS011;43102;52.014;-0.680;2022-11-20T03:33:00;9.10;;;4.00;;
57249;SDS011;43102;52.014;-0.680;2022-11-20T03:34:00;9.10;;;4.00;;
57249;SDS011;43102;52.014;-0.680;2022-11-20T03:35:00;9.10;;;4.00;;
57249;SDS011;43102;52.014;-0.680;2022-11-20T03:36:04;9.10;;;4.00;;
57249;SDS011;43102;52.014;-0.680;2022-11-20T03:37:00;9.10;;;4.00;;
57249;SDS011;43102;52.014;-0.680;2022-11-20T03:38:00;9.10;;;4.00;;
57249;SDS011;43102;52.014;-0.680;2022-11-20T03:39:00;6.20;;;3.80;;
57249;SDS011;43102;52.014;-0.680;2022-11-20T03:40:00;6.20;;;3.80;;
57249;SDS011;43102;52.014;-0.680;2022-11-20T03:41:02;6.20;;;3.80;;
57249;SDS011;43102;52.014;-0.680;2022-11-20T03:42:00;6.20;;;3.80;;
57249;SDS011;43102;52.014;-0.680;2022-11-20T03:43:00;6.20;;;3.80;;
57249;SDS011;43102;52.014;-0.680;2022-11-20T03:44:02;6.20;;;3.80;;
57249;SDS011;43102;52.014;-0.680;2022-11-20T03:45:00;6.20;;;3.80;;
57249;SDS011;43102;52.014;-0.680;2022-11-20T03:46:00;6.20;;;3.80;;
57249;SDS011;43102;52.014;-0.680;2022-11-20T03:47:00;6.20;;;3.80;;
57249;SDS011;43102;52.014;-0.680;2022-11-20T03:48:00;6.20;;;3.80;;
57249;SDS011;43102;52.014;-0.680;2022-11-20T03:49:00;6.20;;;3.80;;
57249;SDS011;43102;52.014;-0.680;2022-11-20T03:50:00;6.20;;;3.80;;
57249;SDS011;43102;52.014;-0.680;2022-11-20T03:51:08;6.20;;;3.80;;
57249;SDS011;43102;52.014;-0.680;2022-11-20T03:52:00;6.20;;;3.80;;
57249;SDS011;43102;52.014;-0.680;2022-11-20T03:53:00;6.20;;;3.80;;
57249;SDS011;43102;52.014;-0.680;2022-11-20T03:54:02;6.20;;;3.80;;
57249;SDS011;43102;52.014;-0.680;2022-11-20T03:55:00;6.20;;;3.80;;
57249;SDS011;43102;52.014;-0.680;2022-11-20T03:56:00;6.20;;;3.80;;
57249;SDS011;43102;52.014;-0.680;2022-11-20T03:57:00;6.20;;;3.80;;
57249;SDS011;43102;52.014;-0.680;2022-11-20T03:58:00;6.20;;;3.80;;
57249;SDS011;43102;52.014;-0.680;2022-11-20T03:59:00;6.20;;;3.80;;
57249;SDS011;43102;52.014;-0.680;2022-11-20T04:00:00;6.20;;;3.80;;
57249;SDS011;43102;52.014;-0.680;2022-11-20T04:01:04;6.20;;;3.80;;
57249;SDS011;43102;52.014;-0.680;2022-11-20T04:02:00;6.20;;;3.80;;
57249;SDS011;43102;52.014;-0.680;2022-11-20T04:03:02;6.20;;;3.80;;
57249;SDS011;43102;52.014;-0.680;2022-11-20T04:04:00;6.20;;;3.80;;
57249;SDS011;43102;52.014;-0.680;2022-11-20T04:05:00;6.20;;;3.80;;
57249;SDS011;43102;52.014;-0.680;2022-11-20T04:06:02;6.20;;;3.80;;
57249;SDS011;43102;52.014;-0.680;2022-11-20T04:07:00;6.20;;;3.80;;
57249;SDS011;43102;52.014;-0.680;2022-11-20T04:08:00;6.20;;;3.80;;
57249;SDS011;43102;52.014;-0.680;2022-11-20T04:09:00;6.50;;;3.80;;
57249;SDS011;43102;52.014;-0.680;2022-11-20T04:10:00;6.50;;;3.80;;
57249;SDS011;43102;52.014;-0.680;2022-11-20T04:11:08;6.50;;;3.80;;
57249;SDS011;43102;52.014;-0.680;2022-11-20T04:12:00;6.50;;;3.80;;
57249;SDS011;43102;52.014;-0.680;2022-11-20T04:13:00;6.50;;;3.80;;
57249;SDS011;43102;52.014;-0.680;2022-11-20T04:14:03;6.50;;;3.80;;
57249;SDS011;43102;52.014;-0.680;2022-11-20T04:15:00;6.50;;;3.80;;
57249;SDS011;43102;52.014;-0.680;2022-11-20T04:16:00;6.50;;;3.80;;
57249;SDS011;43102;52.014;-0.680;2022-11-20T04:17:00;6.50;;;3.80;;
57249;SDS011;43102;52.014;-0.680;2022-11-20T04:18:00;6.50;;;3.80;;
57249;SDS011;43102;52.014;-0.680;2022-11-20T04:19:02;6.50;;;3.80;;
57249;SDS011;43102;52.014;-0.680;2022-11-20T04:20:00;6.50;;;3.80;;
57249;SDS011;43102;52.014;-0.680;2022-11-20T04:21:00;6.50;;;3.80;;
57249;SDS011;43102;52.014;-0.680;2022-11-20T04:22:00;6.50;;;3.80;;
57249;SDS011;43102;52.014;-0.680;2022-11-20T04:23:00;6.50;;;3.80;;
57249;SDS011;43102;52.014;-0.680;2022-11-20T04:24:00;6.50;;;3.80;;
57249;SDS011;43102;52.014;-0.680;2022-11-20T04:25:00;6.50;;;3.80;;
57249;SDS011;43102;52.014;-0.680;2022-11-20T04:26:04;6.50;;;3.80;;
57249;SDS011;43102;52.014;-0.680;2022-11-20T04:27:00;6.50;;;3.80;;
57249;SDS011;43102;52.014;-0.680;2022-11-20T04:28:00;6.50;;;3.80;;
57249;SDS011;43102;52.014;-0.680;2022-11-20T04:29:02;6.50;;;3.80;;
57249;SDS011;43102;52.014;-0.680;2022-11-20T04:30:00;6.50;;;3.80;;
57249;SDS011;43102;52.014;-0.680;2022-11-20T04:31:05;6.50;;;3.80;;
57249;SDS011;43102;52.014;-0.680;2022-11-20T04:32:00;6.50;;;3.80;;
57249;SDS011;43102;52.014;-0.680;2022-11-20T04:33:00;6.50;;;3.80;;
57249;SDS011;43102;52.014;-0.680;2022-11-20T04:34:02;6.50;;;3.80;;
57249;SDS011;43102;52.014;-0.680;2022-11-20T04:35:00;6.50;;;3.80;;
57249;SDS011;43102;52.014;-0.680;2022-11-20T04:36:03;6.50;;;3.80;;
57249;SDS011;43102;52.014;-0.680;2022-11-20T04:37:00;6.50;;;3.80;;
57249;SDS011;43102;52.014;-0.680;2022-11-20T04:38:00;6.50;;;3.80;;
57249;SDS011;43102;52.014;-0.680;2022-11-20T04:39:03;8.50;;;5.00;;
57249;SDS011;43102;52.014;-0.680;2022-11-20T04:40:00;8.50;;;5.00;;
57249;SDS011;43102;52.014;-0.680;2022-11-20T04:41:02;8.50;;;5.00;;
57249;SDS011;43102;52.014;-0.680;2022-11-20T04:42:10;8.50;;;5.00;;
57249;SDS011;43102;52.014;-0.680;2022-11-20T04:43:00;8.50;;;5.00;;
57249;SDS011;43102;52.014;-0.680;2022-11-20T04:44:03;8.50;;;5.00;;
57249;SDS011;43102;52.014;-0.680;2022-11-20T04:45:00;8.50;;;5.00;;
57249;SDS011;43102;52.014;-0.680;2022-11-20T04:46:00;8.50;;;5.00;;
57249;SDS011;43102;52.014;-0.680;2022-11-20T04:47:00;8.50;;;5.00;;
57249;SDS011;43102;52.014;-0.680;2022-11-20T04:48:01;8.50;;;5.00;;
57249;SDS011;43102;52.014;-0.680;2022-11-20T04:49:00;8.50;;;5.00;;
57249;SDS011;43102;52.014;-0.680;2022-11-20T04:50:00;8.50;;;5.00;;
57249;SDS011;43102;52.014;-0.680;2022-11-20T04:51:03;8.50;;;5.00;;
57249;SDS011;43102;52.014;-0.680;2022-11-20T04:52:00;8.50;;;5.00;;
57249;SDS011;43102;52.014;-0.680;2022-11-20T04:53:00;8.50;;;5.00;;
57249;SDS011;43102;52.014;-0.680;2022-11-20T04:54:00;8.50;;;5.00;;
57249;SDS011;43102;52.014;-0.680;2022-11-20T04:55:00;8.50;;;5.00;;
57249;SDS011;43102;52.014;-0.680;2022-11-20T04:56:03;8.50;;;5.00;;
57249;SDS011;43102;52.014;-0.680;2022-11-20T04:57:00;8.50;;;5.00;;
57249;SDS011;43102;52.014;-0.680;2022-11-20T04:58:00;8.50;;;5.00;;
57249;SDS011;43102;52.014;-0.680;2022-11-20T04:59:01;8.50;;;5.00;;
57249;SDS011;43102;52.014;-0.680;2022-11-20T05:00:01;8.50;;;5.00;;
57249;SDS011;43102;52.014;-0.680;2022-11-20T05:01:02;8.50;;;5.00;;
57249;SDS011;43102;52.014;-0.680;2022-11-20T05:02:00;8.50;;;5.00;;
57249;SDS011;43102;52.014;-0.680;2022-11-20T05:03:00;8.50;;;5.00;;
57249;SDS011;43102;52.014;-0.680;2022-11-20T05:04:00;8.50;;;5.00;;
57249;SDS011;43102;52.014;-0.680;2022-11-20T05:05:00;8.50;;;5.00;;
57249;SDS011;43102;52.014;-0.680;2022-11-20T05:06:02;8.50;;;5.00;;
57249;SDS011;43102;52.014;-0.680;2022-11-20T05:07:00;8.50;;;5.00;;
57249;SDS011;43102;52.014;-0.680;2022-11-20T05:08:00;8.50;;;5.00;;
57249;SDS011;43102;52.014;-0.680;2022-11-20T05:09:00;7.30;;;4.50;;
57249;SDS011;43102;52.014;-0.680;2022-11-20T05:10:00;7.30;;;4.50;;
57249;SDS011;43102;52.014;-0.680;2022-11-20T05:11:03;7.30;;;4.50;;
57249;SDS011;43102;52.014;-0.680;2022-11-20T05:12:00;7.30;;;4.50;;
57249;SDS011;43102;52.014;-0.680;2022-11-20T05:13:00;7.30;;;4.50;;
57249;SDS011;43102;52.014;-0.680;2022-11-20T05:14:00;7.30;;;4.50;;
57249;SDS011;43102;52.014;-0.680;2022-11-20T05:15:00;7.30;;;4.50;;
57249;SDS011;43102;52.014;-0.680;2022-11-20T05:16:03;7.30;;;4.50;;
57249;SDS011;43102;52.014;-0.680;2022-11-20T05:17:00;7.30;;;4.50;;
57249;SDS011;43102;52.014;-0.680;2022-11-20T05:18:00;7.30;;;4.50;;
57249;SDS011;43102;52.014;-0.680;2022-11-20T05:19:00;7.30;;;4.50;;
57249;SDS011;43102;52.014;-0.680;2022-11-20T05:20:00;7.30;;;4.50;;
57249;SDS011;43102;52.014;-0.680;2022-11-20T05:21:00;7.30;;;4.50;;
57249;SDS011;43102;52.014;-0.680;2022-11-20T05:22:00;7.30;;;4.50;;
57249;SDS011;43102;52.014;-0.680;2022-11-20T05:23:00;7.30;;;4.50;;
57249;SDS011;43102;52.014;-0.680;2022-11-20T05:24:00;7.30;;;4.50;;
57249;SDS011;43102;52.014;-0.680;2022-11-20T05:25:00;7.30;;;4.50;;
57249;SDS011;43102;52.014;-0.680;2022-11-20T05:26:00;7.30;;;4.50;;
57249;SDS011;43102;52.014;-0.680;2022-11-20T05:27:00;7.30;;;4.50;;
57249;SDS011;43102;52.014;-0.680;2022-11-20T05:28:00;7.30;;;4.50;;
57249;SDS011;43102;52.014;-0.680;2022-11-20T05:29:00;7.30;;;4.50;;
57249;SDS011;43102;52.014;-0.680;2022-11-20T05:30:00;7.30;;;4.50;;
57249;SDS011;43102;52.014;-0.680;2022-11-20T05:31:06;7.30;;;4.50;;
57249;SDS011;43102;52.014;-0.680;2022-11-20T05:32:00;7.30;;;4.50;;
57249;SDS011;43102;52.014;-0.680;2022-11-20T05:33:00;7.30;;;4.50;;
57249;SDS011;43102;52.014;-0.680;2022-11-20T05:34:00;7.30;;;4.50;;
57249;SDS011;43102;52.014;-0.680;2022-11-20T05:35:00;7.30;;;4.50;;
57249;SDS011;43102;52.014;-0.680;2022-11-20T05:36:01;7.30;;;4.50;;
57249;SDS011;43102;52.014;-0.680;2022-11-20T05:37:00;7.30;;;4.50;;
57249;SDS011;43102;52.014;-0.680;2022-11-20T05:38:00;7.30;;;4.50;;
57249;SDS011;43102;52.014;-0.680;2022-11-20T05:39:02;7.00;;;4.80;;
57249;SDS011;43102;52.014;-0.680;2022-11-20T05:40:00;7.00;;;4.80;;
57249;SDS011;43102;52.014;-0.680;2022-11-20T05:41:07;7.00;;;4.80;;
57249;SDS011;43102;52.014;-0.680;2022-11-20T05:42:10;7.00;;;4.80;;
57249;SDS011;43102;52.014;-0.680;2022-11-20T05:43:00;7.00;;;4.80;;
57249;SDS011;43102;52.014;-0.680;2022-11-20T05:44:00;7.00;;;4.80;;
57249;SDS011;43102;52.014;-0.680;2022-11-20T05:45:01;7.00;;;4.80;;
57249;SDS011;43102;52.014;-0.680;2022-11-20T05:46:01;7.00;;;4.80;;
57249;SDS011;43102;52.014;-0.680;2022-11-20T05:47:00;7.00;;;4.80;;
57249;SDS011;43102;52.014;-0.680;2022-11-20T05:48:00;7.00;;;4.80;;
57249;SDS011;43102;52.014;-0.680;2022-11-20T05:49:00;7.00;;;4.80;;
57249;SDS011;43102;52.014;-0.680;2022-11-20T05:50:00;7.00;;;4.80;;
57249;SDS011;43102;52.014;-0.680;2022-11-20T05:51:02;7.00;;;4.80;;
57249;SDS011;43102;52.014;-0.680;2022-11-20T05:52:00;7.00;;;4.80;;
57249;SDS011;43102;52.014;-0.680;2022-11-20T05:53:00;7.00;;;4.80;;
57249;SDS011;43102;52.014;-0.680;2022-11-20T05:54:00;7.00;;;4.80;;
57249;SDS011;43102;52.014;-0.680;2022-11-20T05:55:00;7.00;;;4.80;;
57249;SDS011;43102;52.014;-0.680;2022-11-20T05:56:03;7.00;;;4.80;;
57249;SDS011;43102;52.014;-0.680;2022-11-20T05:57:00;7.00;;;4.80;;
57249;SDS011;43102;52.014;-0.680;2022-11-20T05:58:00;7.00;;;4.80;;
57249;SDS011;43102;52.014;-0.680;2022-11-20T05:59:00;7.00;;;4.80;;
57249;SDS011;43102;52.014;-0.680;2022-11-20T06:00:01;7.00;;;4.80;;
57249;SDS011;43102;52.014;-0.680;2022-11-20T06:01:04;7.00;;;4.80;;
57249;SDS011;43102;52.014;-0.680;2022-11-20T06:02:00;7.00;;;4.80;;
57249;SDS011;43102;52.014;-0.680;2022-11-20T06:03:00;7.00;;;4.80;;
57249;SDS011;43102;52.014;-0.680;2022-11-20T06:04:00;7.00;;;4.80;;
57249;SDS011;43102;52.014;-0.680;2022-11-20T06:05:00;7.00;;;4.80;;
57249;SDS011;43102;52.014;-0.680;2022-11-20T06:06:01;7.00;;;4.80;;
57249;SDS011;43102;52.014;-0.680;2022-11-20T06:07:00;7.00;;;4.80;;
57249;SDS011;43102;52.014;-0.680;2022-11-20T06:08:00;7.00;;;4.80;;
57249;SDS011;43102;52.014;-0.680;2022-11-20T06:09:00;7.50;;;5.00;;
57249;SDS011;43102;52.014;-0.680;2022-11-20T06:10:00;7.50;;;5.00;;
57249;SDS011;43102;52.014;-0.680;2022-11-20T06:11:04;7.50;;;5.00;;
57249;SDS011;43102;52.014;-0.680;2022-11-20T06:12:00;7.50;;;5.00;;
57249;SDS011;43102;52.014;-0.680;2022-11-20T06:13:00;7.50;;;5.00;;
57249;SDS011;43102;52.014;-0.680;2022-11-20T06:14:00;7.50;;;5.00;;
57249;SDS011;43102;52.014;-0.680;2022-11-20T06:15:00;7.50;;;5.00;;
57249;SDS011;43102;52.014;-0.680;2022-11-20T06:16:00;7.50;;;5.00;;
57249;SDS011;43102;52.014;-0.680;2022-11-20T06:17:00;7.50;;;5.00;;
57249;SDS011;43102;52.014;-0.680;2022-11-20T06:18:00;7.50;;;5.00;;
57249;SDS011;43102;52.014;-0.680;2022-11-20T06:19:00;7.50;;;5.00;;
57249;SDS011;43102;52.014;-0.680;2022-11-20T06:20:00;7.50;;;5.00;;
57249;SDS011;43102;52.014;-0.680;2022-11-20T06:21:03;7.50;;;5.00;;
57249;SDS011;43102;52.014;-0.680;2022-11-20T06:22:00;7.50;;;5.00;;
57249;SDS011;43102;52.014;-0.680;2022-11-20T06:23:00;7.50;;;5.00;;
57249;SDS011;43102;52.014;-0.680;2022-11-20T06:24:00;7.50;;;5.00;;